sensor_id;sensor_type;location;lat;lon;timestamp;pressure;altitude;pressure_sealevel;temperature;humidity
55187;BME280;55457;52.002;5.464;2023-05-11T00:00:38;101244.66;;;21.96;54.08
55187;BME280;55457;52.002;5.464;2023-05-11T00:03:03;101244.66;;;21.96;54.22
55187;BME280;55457;52.002;5.464;2023-05-11T00:05:29;101233.78;;;21.96;53.89
55187;BME280;55457;52.002;5.464;2023-05-11T00:07:54;101235.69;;;21.96;53.84
55187;BME280;55457;52.002;5.464;2023-05-11T00:10:20;101226.72;;;21.95;53.81
55187;BME280;55457;52.002;5.464;2023-05-11T00:12:45;101224.00;;;21.95;53.91
55187;BME280;55457;52.002;5.464;2023-05-11T00:15:11;101233.78;;;21.96;54.01
55187;BME280;55457;52.002;5.464;2023-05-11T00:17:36;101227.56;;;21.96;53.91
55187;BME280;55457;52.002;5.464;2023-05-11T00:20:01;101238.41;;;21.96;53.90
55187;BME280;55457;52.002;5.464;2023-05-11T00:22:27;101236.75;;;21.95;54.09
55187;BME280;55457;52.002;5.464;2023-05-11T00:24:52;101231.34;;;21.95;53.90
55187;BME280;55457;52.002;5.464;2023-05-11T00:27:18;101240.28;;;21.95;53.66
55187;BME280;55457;52.002;5.464;2023-05-11T00:29:43;101235.94;;;21.94;53.90
55187;BME280;55457;52.002;5.464;2023-05-11T00:32:08;101230.50;;;21.94;53.69
55187;BME280;55457;52.002;5.464;2023-05-11T00:34:34;101229.69;;;21.94;53.81
55187;BME280;55457;52.002;5.464;2023-05-11T00:36:59;101235.13;;;21.94;53.91
55187;BME280;55457;52.002;5.464;2023-05-11T00:39:25;101235.94;;;21.94;54.16
55187;BME280;55457;52.002;5.464;2023-05-11T00:41:50;101226.16;;;21.93;53.76
55187;BME280;55457;52.002;5.464;2023-05-11T00:44:15;101218.03;;;21.93;54.13
55187;BME280;55457;52.002;5.464;2023-05-11T00:46:41;101223.44;;;21.93;53.99
55187;BME280;55457;52.002;5.464;2023-05-11T00:49:07;101226.16;;;21.93;53.68
55187;BME280;55457;52.002;5.464;2023-05-11T00:51:33;101226.97;;;21.94;53.85
55187;BME280;55457;52.002;5.464;2023-05-11T00:53:59;101230.78;;;21.93;53.70
55187;BME280;55457;52.002;5.464;2023-05-11T00:56:26;101232.63;;;21.92;53.86
55187;BME280;55457;52.002;5.464;2023-05-11T00:58:51;101227.22;;;21.92;53.73
55187;BME280;55457;52.002;5.464;2023-05-11T01:01:17;101232.63;;;21.92;53.87
55187;BME280;55457;52.002;5.464;2023-05-11T01:03:43;101224.50;;;21.92;53.77
55187;BME280;55457;52.002;5.464;2023-05-11T01:09:01;101232.63;;;21.92;53.71
55187;BME280;55457;52.002;5.464;2023-05-11T01:11:46;101227.22;;;21.92;53.83
55187;BME280;55457;52.002;5.464;2023-05-11T01:14:59;101231.00;;;21.91;53.92
55187;BME280;55457;52.002;5.464;2023-05-11T01:17:30;101233.72;;;21.91;53.51
55187;BME280;55457;52.002;5.464;2023-05-11T01:20:04;101224.75;;;21.91;53.67
55187;BME280;55457;52.002;5.464;2023-05-11T01:25:37;101225.56;;;21.91;53.78
55187;BME280;55457;52.002;5.464;2023-05-11T01:28:22;101227.72;;;21.89;53.81
55187;BME280;55457;52.002;5.464;2023-05-11T01:30:53;101233.97;;;21.89;54.01
55187;BME280;55457;52.002;5.464;2023-05-11T01:33:25;101226.88;;;21.88;53.85
55187;BME280;55457;52.002;5.464;2023-05-11T01:35:54;101228.53;;;21.89;53.66
55187;BME280;55457;52.002;5.464;2023-05-11T01:38:21;101229.34;;;21.90;53.97
55187;BME280;55457;52.002;5.464;2023-05-11T01:40:53;101227.72;;;21.89;53.61
55187;BME280;55457;52.002;5.464;2023-05-11T01:43:22;101227.72;;;21.89;53.54
55187;BME280;55457;52.002;5.464;2023-05-11T01:45:51;101235.84;;;21.89;54.09
55187;BME280;55457;52.002;5.464;2023-05-11T01:48:21;101233.13;;;21.89;53.99
55187;BME280;55457;52.002;5.464;2023-05-11T01:50:49;101239.38;;;21.89;53.82
55187;BME280;55457;52.002;5.464;2023-05-11T01:53:16;101239.38;;;21.89;53.96
55187;BME280;55457;52.002;5.464;2023-05-11T01:55:42;101235.84;;;21.89;53.66
55187;BME280;55457;52.002;5.464;2023-05-11T01:58:12;101244.81;;;21.89;53.82
55187;BME280;55457;52.002;5.464;2023-05-11T02:00:40;101249.41;;;21.89;53.92
55187;BME280;55457;52.002;5.464;2023-05-11T02:03:07;101252.13;;;21.89;53.72
55187;BME280;55457;52.002;5.464;2023-05-11T02:05:34;101253.22;;;21.88;53.90
55187;BME280;55457;52.002;5.464;2023-05-11T02:08:01;101247.78;;;21.88;53.67
55187;BME280;55457;52.002;5.464;2023-05-11T02:10:29;101250.50;;;21.88;53.59
55187;BME280;55457;52.002;5.464;2023-05-11T02:12:57;101259.44;;;21.88;53.81
55187;BME280;55457;52.002;5.464;2023-05-11T02:15:24;101249.69;;;21.87;53.57
55187;BME280;55457;52.002;5.464;2023-05-11T02:17:51;101251.53;;;21.87;53.90
55187;BME280;55457;52.002;5.464;2023-05-11T02:20:18;101255.09;;;21.87;53.63
55187;BME280;55457;52.002;5.464;2023-05-11T02:22:45;101255.91;;;21.88;53.68
55187;BME280;55457;52.002;5.464;2023-05-11T02:25:11;101254.25;;;21.87;53.61
55187;BME280;55457;52.002;5.464;2023-05-11T02:27:37;101252.59;;;21.86;53.42
55187;BME280;55457;52.002;5.464;2023-05-11T02:30:04;101255.31;;;21.86;53.96
55187;BME280;55457;52.002;5.464;2023-05-11T02:32:34;101252.59;;;21.86;53.73
55187;BME280;55457;52.002;5.464;2023-05-11T02:35:16;101256.13;;;21.86;53.80
55187;BME280;55457;52.002;5.464;2023-05-11T02:37:45;101256.13;;;21.86;53.66
55187;BME280;55457;52.002;5.464;2023-05-11T02:40:24;101249.91;;;21.86;53.80
55187;BME280;55457;52.002;5.464;2023-05-11T02:42:56;101249.91;;;21.86;53.39
55187;BME280;55457;52.002;5.464;2023-05-11T02:45:23;101248.25;;;21.85;53.62
55187;BME280;55457;52.002;5.464;2023-05-11T02:47:54;101251.78;;;21.85;53.56
55187;BME280;55457;52.002;5.464;2023-05-11T02:50:22;101248.25;;;21.85;53.51
55187;BME280;55457;52.002;5.464;2023-05-11T02:52:52;101255.31;;;21.86;53.48
55187;BME280;55457;52.002;5.464;2023-05-11T02:55:19;101253.69;;;21.85;53.84
55187;BME280;55457;52.002;5.464;2023-05-11T02:57:46;101251.22;;;21.83;53.58
55187;BME280;55457;52.002;5.464;2023-05-11T03:00:12;101246.63;;;21.84;53.48
55187;BME280;55457;52.002;5.464;2023-05-11T03:02:38;101252.03;;;21.84;53.63
55187;BME280;55457;52.002;5.464;2023-05-11T03:05:04;101253.69;;;21.85;53.75
55187;BME280;55457;52.002;5.464;2023-05-11T03:07:31;101251.22;;;21.83;53.41
55187;BME280;55457;52.002;5.464;2023-05-11T03:09:57;101258.28;;;21.84;53.57
55187;BME280;55457;52.002;5.464;2023-05-11T03:12:22;101245.78;;;21.83;53.36
55187;BME280;55457;52.002;5.464;2023-05-11T03:14:48;101248.50;;;21.83;53.54
55187;BME280;55457;52.002;5.464;2023-05-11T03:17:15;101241.19;;;21.84;53.39
55187;BME280;55457;52.002;5.464;2023-05-11T03:19:41;101244.97;;;21.83;53.49
55187;BME280;55457;52.002;5.464;2023-05-11T03:22:08;101241.19;;;21.84;53.58
55187;BME280;55457;52.002;5.464;2023-05-11T03:24:34;101243.06;;;21.83;53.75
55187;BME280;55457;52.002;5.464;2023-05-11T03:27:00;101240.38;;;21.83;53.58
55187;BME280;55457;52.002;5.464;2023-05-11T03:29:28;101230.59;;;21.82;53.43
55187;BME280;55457;52.002;5.464;2023-05-11T03:31:54;101233.31;;;21.82;53.51
55187;BME280;55457;52.002;5.464;2023-05-11T03:34:19;101228.91;;;21.81;53.48
55187;BME280;55457;52.002;5.464;2023-05-11T03:36:47;101228.09;;;21.81;53.35
55187;BME280;55457;52.002;5.464;2023-05-11T03:39:14;101231.63;;;21.81;53.33
55187;BME280;55457;52.002;5.464;2023-05-11T03:41:40;101230.81;;;21.81;53.32
55187;BME280;55457;52.002;5.464;2023-05-11T03:44:09;101220.78;;;21.81;53.58
55187;BME280;55457;52.002;5.464;2023-05-11T03:46:37;101220.78;;;21.81;53.63
55187;BME280;55457;52.002;5.464;2023-05-11T03:49:06;101225.97;;;21.83;53.67
55187;BME280;55457;52.002;5.464;2023-05-11T03:51:34;101227.88;;;21.82;53.58
55187;BME280;55457;52.002;5.464;2023-05-11T03:54:00;101236.22;;;21.81;53.48
55187;BME280;55457;52.002;5.464;2023-05-11T03:56:25;101229.72;;;21.82;53.48
55187;BME280;55457;52.002;5.464;2023-05-11T03:58:51;101236.22;;;21.81;53.57
55187;BME280;55457;52.002;5.464;2023-05-11T04:01:17;101241.66;;;21.81;53.43
55187;BME280;55457;52.002;5.464;2023-05-11T04:03:50;101241.66;;;21.81;53.17
55187;BME280;55457;52.002;5.464;2023-05-11T04:06:16;101237.31;;;21.80;53.40
55187;BME280;55457;52.002;5.464;2023-05-11T04:08:42;101234.59;;;21.80;53.24
55187;BME280;55457;52.002;5.464;2023-05-11T04:11:09;101237.31;;;21.80;53.23
55187;BME280;55457;52.002;5.464;2023-05-11T04:13:35;101234.59;;;21.80;53.32
55187;BME280;55457;52.002;5.464;2023-05-11T04:16:00;101243.81;;;21.79;53.43
55187;BME280;55457;52.002;5.464;2023-05-11T04:18:25;101241.91;;;21.79;53.09
55187;BME280;55457;52.002;5.464;2023-05-11T04:20:51;101249.22;;;21.79;53.44
55187;BME280;55457;52.002;5.464;2023-05-11T04:23:16;101245.44;;;21.80;53.46
55187;BME280;55457;52.002;5.464;2023-05-11T04:25:41;101245.91;;;21.77;53.46
55187;BME280;55457;52.002;5.464;2023-05-11T04:28:06;101254.41;;;21.80;53.36
55187;BME280;55457;52.002;5.464;2023-05-11T04:30:32;101244.63;;;21.79;53.01
55187;BME280;55457;52.002;5.464;2023-05-11T04:32:58;101253.84;;;21.78;53.46
55187;BME280;55457;52.002;5.464;2023-05-11T04:35:23;101253.59;;;21.80;53.44
55187;BME280;55457;52.002;5.464;2023-05-11T04:37:49;101248.41;;;21.78;53.27
55187;BME280;55457;52.002;5.464;2023-05-11T04:40:14;101250.06;;;21.79;53.25
55187;BME280;55457;52.002;5.464;2023-05-11T04:42:40;101258.19;;;21.79;53.16
55187;BME280;55457;52.002;5.464;2023-05-11T04:45:05;101262.78;;;21.79;53.38
55187;BME280;55457;52.002;5.464;2023-05-11T04:47:31;101270.94;;;21.79;53.36
55187;BME280;55457;52.002;5.464;2023-05-11T04:49:56;101269.28;;;21.78;53.09
55187;BME280;55457;52.002;5.464;2023-05-11T04:52:22;101262.78;;;21.79;53.11
55187;BME280;55457;52.002;5.464;2023-05-11T04:54:47;101269.28;;;21.78;53.38
55187;BME280;55457;52.002;5.464;2023-05-11T04:57:12;101266.34;;;21.79;52.99
55187;BME280;55457;52.002;5.464;2023-05-11T04:59:38;101275.53;;;21.78;53.10
55187;BME280;55457;52.002;5.464;2023-05-11T05:02:03;101276.38;;;21.79;53.32
55187;BME280;55457;52.002;5.464;2023-05-11T05:04:29;101278.25;;;21.78;53.10
55187;BME280;55457;52.002;5.464;2023-05-11T05:06:54;101279.31;;;21.77;53.19
55187;BME280;55457;52.002;5.464;2023-05-11T05:09:19;101280.97;;;21.78;53.33
55187;BME280;55457;52.002;5.464;2023-05-11T05:11:45;101279.31;;;21.77;53.21
55187;BME280;55457;52.002;5.464;2023-05-11T05:14:10;101275.53;;;21.78;52.98
55187;BME280;55457;52.002;5.464;2023-05-11T05:16:35;101280.97;;;21.78;53.34
55187;BME280;55457;52.002;5.464;2023-05-11T05:19:01;101277.44;;;21.78;53.30
55187;BME280;55457;52.002;5.464;2023-05-11T05:21:26;101280.97;;;21.78;53.11
55187;BME280;55457;52.002;5.464;2023-05-11T05:23:52;101277.44;;;21.78;53.35
55187;BME280;55457;52.002;5.464;2023-05-11T05:26:17;101279.31;;;21.77;53.10
55187;BME280;55457;52.002;5.464;2023-05-11T05:28:42;101281.78;;;21.79;53.45
55187;BME280;55457;52.002;5.464;2023-05-11T05:31:08;101286.41;;;21.78;53.04
55187;BME280;55457;52.002;5.464;2023-05-11T05:33:33;101277.19;;;21.79;53.06
55187;BME280;55457;52.002;5.464;2023-05-11T05:35:58;101288.03;;;21.79;53.02
55187;BME280;55457;52.002;5.464;2023-05-11T05:38:24;101281.78;;;21.79;53.39
55187;BME280;55457;52.002;5.464;2023-05-11T05:40:50;101293.47;;;21.79;53.40
55187;BME280;55457;52.002;5.464;2023-05-11T05:43:15;101291.56;;;21.80;53.08
55187;BME280;55457;52.002;5.464;2023-05-11T05:45:41;101291.00;;;21.78;53.42
55187;BME280;55457;52.002;5.464;2023-05-11T05:48:06;101297.00;;;21.80;53.04
55187;BME280;55457;52.002;5.464;2023-05-11T05:50:33;101293.72;;;21.78;53.46
55187;BME280;55457;52.002;5.464;2023-05-11T05:52:59;101299.72;;;21.80;53.11
55187;BME280;55457;52.002;5.464;2023-05-11T05:55:24;101305.13;;;21.80;53.26
55187;BME280;55457;52.002;5.464;2023-05-11T05:57:50;101307.59;;;21.81;52.95
55187;BME280;55457;52.002;5.464;2023-05-11T06:00:16;101310.56;;;21.80;53.04
55187;BME280;55457;52.002;5.464;2023-05-11T06:02:41;101312.19;;;21.81;53.38
55187;BME280;55457;52.002;5.464;2023-05-11T06:05:07;101317.63;;;21.81;53.18
55187;BME280;55457;52.002;5.464;2023-05-11T06:07:32;101316.81;;;21.80;53.07
55187;BME280;55457;52.002;5.464;2023-05-11T06:09:58;101315.97;;;21.80;53.08
55187;BME280;55457;52.002;5.464;2023-05-11T06:12:24;101315.97;;;21.80;53.22
55187;BME280;55457;52.002;5.464;2023-05-11T06:14:49;101313.84;;;21.82;53.16
55187;BME280;55457;52.002;5.464;2023-05-11T06:17:15;101319.28;;;21.82;53.61
55187;BME280;55457;52.002;5.464;2023-05-11T06:19:40;101319.28;;;21.82;53.09
55187;BME280;55457;52.002;5.464;2023-05-11T06:22:06;101324.69;;;21.82;53.11
55187;BME280;55457;52.002;5.464;2023-05-11T06:24:32;101323.66;;;21.83;53.27
55187;BME280;55457;52.002;5.464;2023-05-11T06:26:57;101326.38;;;21.83;53.15
55187;BME280;55457;52.002;5.464;2023-05-11T06:29:22;101328.00;;;21.84;53.10
55187;BME280;55457;52.002;5.464;2023-05-11T06:31:48;101326.38;;;21.83;53.33
55187;BME280;55457;52.002;5.464;2023-05-11T06:34:18;101318.78;;;21.85;53.30
55187;BME280;55457;52.002;5.464;2023-05-11T06:36:44;101334.00;;;21.86;53.31
55187;BME280;55457;52.002;5.464;2023-05-11T06:39:09;101335.66;;;21.87;53.11
55187;BME280;55457;52.002;5.464;2023-05-11T06:41:35;101331.91;;;21.88;53.10
55187;BME280;55457;52.002;5.464;2023-05-11T06:44:00;101333.53;;;21.89;53.21
55187;BME280;55457;52.002;5.464;2023-05-11T06:46:25;101333.78;;;21.87;53.35
55187;BME280;55457;52.002;5.464;2023-05-11T06:48:51;101337.31;;;21.88;53.26
55187;BME280;55457;52.002;5.464;2023-05-11T06:51:16;101334.59;;;21.88;53.09
55187;BME280;55457;52.002;5.464;2023-05-11T06:53:41;101334.59;;;21.88;53.27
55187;BME280;55457;52.002;5.464;2023-05-11T06:56:07;101338.38;;;21.87;52.96
55187;BME280;55457;52.002;5.464;2023-05-11T06:58:32;101338.38;;;21.87;53.41
55187;BME280;55457;52.002;5.464;2023-05-11T07:00:58;101346.50;;;21.87;53.17
55187;BME280;55457;52.002;5.464;2023-05-11T07:03:23;101346.28;;;21.88;52.97
55187;BME280;55457;52.002;5.464;2023-05-11T07:05:49;101339.78;;;21.89;53.06
55187;BME280;55457;52.002;5.464;2023-05-11T07:08:14;101337.88;;;21.90;53.05
55187;BME280;55457;52.002;5.464;2023-05-11T07:10:39;101333.53;;;21.89;53.19
55187;BME280;55457;52.002;5.464;2023-05-11T07:13:06;101342.50;;;21.89;53.13
55187;BME280;55457;52.002;5.464;2023-05-11T07:15:32;101347.69;;;21.91;53.04
55187;BME280;55457;52.002;5.464;2023-05-11T07:17:57;101336.81;;;21.91;53.10
55187;BME280;55457;52.002;5.464;2023-05-11T07:20:23;101339.06;;;21.94;53.05
55187;BME280;55457;52.002;5.464;2023-05-11T07:22:48;101341.53;;;21.96;52.83
55187;BME280;55457;52.002;5.464;2023-05-11T07:25:13;101344.25;;;21.96;53.08
55187;BME280;55457;52.002;5.464;2023-05-11T07:27:39;101342.34;;;21.96;53.12
55187;BME280;55457;52.002;5.464;2023-05-11T07:30:05;101343.41;;;21.95;53.14
55187;BME280;55457;52.002;5.464;2023-05-11T07:32:31;101340.72;;;21.95;52.93
55187;BME280;55457;52.002;5.464;2023-05-11T07:34:56;101339.06;;;21.94;53.19
55187;BME280;55457;52.002;5.464;2023-05-11T07:37:22;101345.06;;;21.96;53.19
55187;BME280;55457;52.002;5.464;2023-05-11T07:39:47;101341.53;;;21.96;53.01
55187;BME280;55457;52.002;5.464;2023-05-11T07:42:12;101350.25;;;21.98;53.21
55187;BME280;55457;52.002;5.464;2023-05-11T07:44:38;101345.66;;;21.98;53.29
55187;BME280;55457;52.002;5.464;2023-05-11T07:47:03;101341.88;;;21.99;53.18
55187;BME280;55457;52.002;5.464;2023-05-11T07:49:29;101338.09;;;22.00;53.14
55187;BME280;55457;52.002;5.464;2023-05-11T07:51:54;101338.09;;;22.00;53.35
55187;BME280;55457;52.002;5.464;2023-05-11T07:54:19;101345.16;;;22.01;53.60
55187;BME280;55457;52.002;5.464;2023-05-11T07:56:45;101346.81;;;22.02;53.50
55187;BME280;55457;52.002;5.464;2023-05-11T07:59:11;101342.44;;;22.01;53.42
55187;BME280;55457;52.002;5.464;2023-05-11T08:01:36;101346.81;;;22.02;53.56
55187;BME280;55457;52.002;5.464;2023-05-11T08:04:01;101344.09;;;22.02;53.42
55187;BME280;55457;52.002;5.464;2023-05-11T08:06:27;101340.91;;;22.05;53.50
55187;BME280;55457;52.002;5.464;2023-05-11T08:08:52;101340.44;;;22.08;53.48
55187;BME280;55457;52.002;5.464;2023-05-11T08:11:17;101338.31;;;22.10;53.69
55187;BME280;55457;52.002;5.464;2023-05-11T08:13:43;101342.88;;;22.10;53.64
55187;BME280;55457;52.002;5.464;2023-05-11T08:16:08;101350.81;;;22.11;53.57
55187;BME280;55457;52.002;5.464;2023-05-11T08:18:33;101350.81;;;22.11;53.71
55187;BME280;55457;52.002;5.464;2023-05-11T08:20:59;101346.56;;;22.16;53.45
55187;BME280;55457;52.002;5.464;2023-05-11T08:23:24;101347.13;;;22.18;53.16
55187;BME280;55457;52.002;5.464;2023-05-11T08:25:51;101360.22;;;22.21;53.35
55187;BME280;55457;52.002;5.464;2023-05-11T08:28:18;101355.97;;;22.25;53.01
55187;BME280;55457;52.002;5.464;2023-05-11T08:30:43;101353.25;;;22.25;53.45
55187;BME280;55457;52.002;5.464;2023-05-11T08:33:09;101350.53;;;22.25;53.18
55187;BME280;55457;52.002;5.464;2023-05-11T08:35:34;101347.81;;;22.25;52.87
55187;BME280;55457;52.002;5.464;2023-05-11T08:38:00;101352.16;;;22.26;53.11
55187;BME280;55457;52.002;5.464;2023-05-11T08:40:26;101343.53;;;22.29;53.30
55187;BME280;55457;52.002;5.464;2023-05-11T08:42:54;101345.75;;;22.32;53.16
55187;BME280;55457;52.002;5.464;2023-05-11T08:45:21;101343.63;;;22.34;53.75
55187;BME280;55457;52.002;5.464;2023-05-11T08:47:47;101346.09;;;22.35;53.32
55187;BME280;55457;52.002;5.464;2023-05-11T08:50:13;101345.84;;;22.37;53.19
55187;BME280;55457;52.002;5.464;2023-05-11T08:52:39;101345.38;;;22.40;53.02
55187;BME280;55457;52.002;5.464;2023-05-11T08:55:06;101347.59;;;22.43;53.01
55187;BME280;55457;52.002;5.464;2023-05-11T08:57:33;101340.25;;;22.44;53.19
55187;BME280;55457;52.002;5.464;2023-05-11T09:00:00;101347.09;;;22.46;53.35
55187;BME280;55457;52.002;5.464;2023-05-11T09:02:27;101343.31;;;22.47;53.13
55187;BME280;55457;52.002;5.464;2023-05-11T09:04:53;101339.53;;;22.48;53.25
55187;BME280;55457;52.002;5.464;2023-05-11T09:07:19;101340.13;;;22.50;53.14
55187;BME280;55457;52.002;5.464;2023-05-11T09:09:45;101346.13;;;22.52;52.99
55187;BME280;55457;52.002;5.464;2023-05-11T09:12:12;101341.16;;;22.49;53.08
55187;BME280;55457;52.002;5.464;2023-05-11T09:14:37;101347.66;;;22.48;53.16
55187;BME280;55457;52.002;5.464;2023-05-11T09:17:03;101345.47;;;22.45;53.28
55187;BME280;55457;52.002;5.464;2023-05-11T09:19:28;101349.47;;;22.43;52.89
55187;BME280;55457;52.002;5.464;2023-05-11T09:21:54;101338.88;;;22.41;53.27
55187;BME280;55457;52.002;5.464;2023-05-11T09:24:20;101344.78;;;22.38;53.29
55187;BME280;55457;52.002;5.464;2023-05-11T09:26:46;101350.47;;;22.36;52.86
55187;BME280;55457;52.002;5.464;2023-05-11T09:29:11;101348.81;;;22.35;53.21
55187;BME280;55457;52.002;5.464;2023-05-11T09:34:13;101349.91;;;22.34;53.06
55187;BME280;55457;52.002;5.464;2023-05-11T09:36:40;101344.69;;;22.33;53.19
55187;BME280;55457;52.002;5.464;2023-05-11T09:39:06;101346.59;;;22.32;53.21
55187;BME280;55457;52.002;5.464;2023-05-11T09:41:31;101351.19;;;22.32;53.02
55187;BME280;55457;52.002;5.464;2023-05-11T09:44:23;101354.16;;;22.30;53.24
55187;BME280;55457;52.002;5.464;2023-05-11T09:47:09;101354.97;;;22.31;53.42
55187;BME280;55457;52.002;5.464;2023-05-11T09:49:34;101351.66;;;22.29;53.40
55187;BME280;55457;52.002;5.464;2023-05-11T09:52:00;101351.66;;;22.29;53.11
55187;BME280;55457;52.002;5.464;2023-05-11T09:54:25;101348.38;;;22.27;53.35
55187;BME280;55457;52.002;5.464;2023-05-11T09:56:52;101359.25;;;22.27;53.21
55187;BME280;55457;52.002;5.464;2023-05-11T09:59:36;101353.25;;;22.25;53.35
55187;BME280;55457;52.002;5.464;2023-05-11T10:02:27;101349.72;;;22.24;53.38
55187;BME280;55457;52.002;5.464;2023-05-11T10:04:58;101348.84;;;22.24;53.58
55187;BME280;55457;52.002;5.464;2023-05-11T10:07:29;101348.84;;;22.24;53.62
55187;BME280;55457;52.002;5.464;2023-05-11T10:09:57;101346.41;;;22.22;54.16
55187;BME280;55457;52.002;5.464;2023-05-11T10:12:24;101351.00;;;22.22;54.21
55187;BME280;55457;52.002;5.464;2023-05-11T10:14:57;101343.69;;;22.22;53.97
55187;BME280;55457;52.002;5.464;2023-05-11T10:17:24;101348.28;;;22.22;54.21
55187;BME280;55457;52.002;5.464;2023-05-11T10:19:51;101353.47;;;22.23;54.19
55187;BME280;55457;52.002;5.464;2023-05-11T10:22:18;101343.44;;;22.24;54.22
55187;BME280;55457;52.002;5.464;2023-05-11T10:24:44;101345.31;;;22.23;54.57
55187;BME280;55457;52.002;5.464;2023-05-11T10:27:10;101345.31;;;22.23;54.08
55187;BME280;55457;52.002;5.464;2023-05-11T10:29:37;101350.53;;;22.25;53.91
55187;BME280;55457;52.002;5.464;2023-05-11T10:32:03;101346.16;;;22.24;53.77
55187;BME280;55457;52.002;5.464;2023-05-11T10:34:31;101345.91;;;22.25;53.97
55187;BME280;55457;52.002;5.464;2023-05-11T10:36:59;101350.53;;;22.25;53.61
55187;BME280;55457;52.002;5.464;2023-05-11T10:39:25;101343.44;;;22.24;53.77
55187;BME280;55457;52.002;5.464;2023-05-11T10:41:54;101347.31;;;22.28;53.75
55187;BME280;55457;52.002;5.464;2023-05-11T10:53:11;101345.28;;;22.35;53.91
55187;BME280;55457;52.002;5.464;2023-05-11T10:56:02;101339.34;;;22.38;53.68
55187;BME280;55457;52.002;5.464;2023-05-11T11:01:38;101340.03;;;22.45;53.93
55187;BME280;55457;52.002;5.464;2023-05-11T11:04:06;101338.38;;;22.44;53.93
55187;BME280;55457;52.002;5.464;2023-05-11T11:06:34;101339.19;;;22.45;54.04
55187;BME280;55457;52.002;5.464;2023-05-11T11:09:04;101334.81;;;22.44;54.04
55187;BME280;55457;52.002;5.464;2023-05-11T11:11:32;101336.72;;;22.43;53.84
55187;BME280;55457;52.002;5.464;2023-05-11T11:14:00;101334.25;;;22.42;54.11
55187;BME280;55457;52.002;5.464;2023-05-11T11:16:27;101342.16;;;22.43;54.22
55187;BME280;55457;52.002;5.464;2023-05-11T11:22:00;101338.88;;;22.41;54.30
55187;BME280;55457;52.002;5.464;2023-05-11T11:27:03;101334.50;;;22.40;54.17
55187;BME280;55457;52.002;5.464;2023-05-11T11:29:29;101341.00;;;22.39;54.19
55187;BME280;55457;52.002;5.464;2023-05-11T11:34:44;101335.00;;;22.37;54.12
55187;BME280;55457;52.002;5.464;2023-05-11T11:37:10;101337.13;;;22.35;54.33
55187;BME280;55457;52.002;5.464;2023-05-11T11:42:31;101339.25;;;22.33;54.42
55187;BME280;55457;52.002;5.464;2023-05-11T11:45:30;101340.34;;;22.32;54.32
55187;BME280;55457;52.002;5.464;2023-05-11T11:48:10;101333.25;;;22.31;54.37
55187;BME280;55457;52.002;5.464;2023-05-11T11:50:38;101334.91;;;22.32;54.59
55187;BME280;55457;52.002;5.464;2023-05-11T11:53:03;101334.34;;;22.30;54.35
55187;BME280;55457;52.002;5.464;2023-05-11T11:55:49;101341.41;;;22.31;54.37
55187;BME280;55457;52.002;5.464;2023-05-11T12:01:06;101348.72;;;22.30;54.32
55187;BME280;55457;52.002;5.464;2023-05-11T12:03:35;101350.63;;;22.30;54.43
55187;BME280;55457;52.002;5.464;2023-05-11T12:06:02;101343.78;;;22.27;54.44
55187;BME280;55457;52.002;5.464;2023-05-11T12:08:29;101340.81;;;22.29;54.71
55187;BME280;55457;52.002;5.464;2023-05-11T12:10:58;101347.91;;;22.30;54.40
55187;BME280;55457;52.002;5.464;2023-05-11T12:13:24;101347.09;;;22.29;54.35
55187;BME280;55457;52.002;5.464;2023-05-11T12:16:06;101354.38;;;22.29;54.49
55187;BME280;55457;52.002;5.464;2023-05-11T12:18:32;101353.00;;;22.26;54.65
55187;BME280;55457;52.002;5.464;2023-05-11T12:20:58;101353.25;;;22.25;54.52
55187;BME280;55457;52.002;5.464;2023-05-11T12:23:23;101358.69;;;22.25;54.87
55187;BME280;55457;52.002;5.464;2023-05-11T12:26:04;101360.56;;;22.24;54.49
55187;BME280;55457;52.002;5.464;2023-05-11T12:28:31;101362.69;;;22.22;54.73
55187;BME280;55457;52.002;5.464;2023-05-11T12:30:56;101360.22;;;22.21;54.46
55187;BME280;55457;52.002;5.464;2023-05-11T12:33:22;101368.63;;;22.19;54.78
55187;BME280;55457;52.002;5.464;2023-05-11T12:35:55;101374.06;;;22.19;54.58
55187;BME280;55457;52.002;5.464;2023-05-11T12:38:21;101376.16;;;22.17;54.63
55187;BME280;55457;52.002;5.464;2023-05-11T12:40:48;101376.97;;;22.18;54.76
55187;BME280;55457;52.002;5.464;2023-05-11T12:43:21;101376.97;;;22.18;54.74
55187;BME280;55457;52.002;5.464;2023-05-11T12:45:46;101380.78;;;22.17;54.52
55187;BME280;55457;52.002;5.464;2023-05-11T12:48:13;101383.75;;;22.15;54.69
55187;BME280;55457;52.002;5.464;2023-05-11T12:50:43;101379.38;;;22.14;54.74
55187;BME280;55457;52.002;5.464;2023-05-11T12:53:18;101377.50;;;22.14;54.66
55187;BME280;55457;52.002;5.464;2023-05-11T12:55:56;101378.56;;;22.13;54.54
55187;BME280;55457;52.002;5.464;2023-05-11T12:58:22;101383.13;;;22.13;54.33
55187;BME280;55457;52.002;5.464;2023-05-11T13:00:55;101381.28;;;22.13;54.98
55187;BME280;55457;52.002;5.464;2023-05-11T13:03:28;101379.59;;;22.12;54.65
55187;BME280;55457;52.002;5.464;2023-05-11T13:06:07;101382.56;;;22.11;54.38
55187;BME280;55457;52.002;5.464;2023-05-11T13:08:44;101380.69;;;22.11;54.39
55187;BME280;55457;52.002;5.464;2023-05-11T13:11:20;101373.34;;;22.12;54.51
55187;BME280;55457;52.002;5.464;2023-05-11T13:13:50;101376.31;;;22.10;54.79
55187;BME280;55457;52.002;5.464;2023-05-11T13:16:29;101361.88;;;22.10;54.18
55187;BME280;55457;52.002;5.464;2023-05-11T13:18:57;101368.16;;;22.10;54.75
55187;BME280;55457;52.002;5.464;2023-05-11T13:21:23;101369.22;;;22.09;54.63
55187;BME280;55457;52.002;5.464;2023-05-11T13:23:49;101363.78;;;22.09;54.57
55187;BME280;55457;52.002;5.464;2023-05-11T13:26:24;101366.50;;;22.09;54.45